sensor_id;sensor_type;location;lat;lon;timestamp;P1;durP1;ratioP1;P2;durP2;ratioP2
83761;SDS011;73752;49.594;8.734;2023-12-29T00:01:33;6.93;;;5.18;;
83761;SDS011;73752;49.594;8.734;2023-12-29T00:04:00;10.38;;;6.25;;
83761;SDS011;73752;49.594;8.734;2023-12-29T00:06:27;11.57;;;5.38;;
83761;SDS011;73752;49.594;8.734;2023-12-29T00:08:53;7.82;;;5.15;;
83761;SDS011;73752;49.594;8.734;2023-12-29T00:11:20;9.13;;;5.75;;
83761;SDS011;73752;49.594;8.734;2023-12-29T00:13:47;12.52;;;5.35;;
83761;SDS011;73752;49.594;8.734;2023-12-29T00:16:16;10.77;;;5.93;;
83761;SDS011;73752;49.594;8.734;2023-12-29T00:18:43;7.57;;;5.53;;
83761;SDS011;73752;49.594;8.734;2023-12-29T00:21:10;9.45;;;5.97;;
83761;SDS011;73752;49.594;8.734;2023-12-29T00:23:37;7.75;;;4.88;;
83761;SDS011;73752;49.594;8.734;2023-12-29T00:26:04;11.50;;;6.75;;
83761;SDS011;73752;49.594;8.734;2023-12-29T00:28:30;7.93;;;5.68;;
83761;SDS011;73752;49.594;8.734;2023-12-29T00:30:57;6.93;;;4.97;;
83761;SDS011;73752;49.594;8.734;2023-12-29T00:33:23;10.48;;;5.38;;
83761;SDS011;73752;49.594;8.734;2023-12-29T00:35:50;6.32;;;5.18;;
83761;SDS011;73752;49.594;8.734;2023-12-29T00:38:20;7.85;;;5.05;;
83761;SDS011;73752;49.594;8.734;2023-12-29T00:40:47;7.30;;;5.22;;
83761;SDS011;73752;49.594;8.734;2023-12-29T00:43:14;7.65;;;4.78;;
83761;SDS011;73752;49.594;8.734;2023-12-29T00:45:40;6.05;;;5.00;;
83761;SDS011;73752;49.594;8.734;2023-12-29T00:48:07;5.55;;;4.63;;
83761;SDS011;73752;49.594;8.734;2023-12-29T00:50:35;9.75;;;4.60;;
83761;SDS011;73752;49.594;8.734;2023-12-29T00:53:01;7.97;;;5.30;;
83761;SDS011;73752;49.594;8.734;2023-12-29T00:55:33;8.85;;;4.50;;
83761;SDS011;73752;49.594;8.734;2023-12-29T00:58:00;7.60;;;4.68;;
83761;SDS011;73752;49.594;8.734;2023-12-29T01:00:26;7.72;;;5.28;;
83761;SDS011;73752;49.594;8.734;2023-12-29T01:02:53;8.35;;;5.03;;
83761;SDS011;73752;49.594;8.734;2023-12-29T01:05:19;7.93;;;4.85;;
83761;SDS011;73752;49.594;8.734;2023-12-29T01:07:46;6.65;;;4.93;;
83761;SDS011;73752;49.594;8.734;2023-12-29T01:10:13;9.40;;;5.78;;
83761;SDS011;73752;49.594;8.734;2023-12-29T01:12:40;6.88;;;5.05;;
83761;SDS011;73752;49.594;8.734;2023-12-29T01:15:07;9.98;;;5.45;;
83761;SDS011;73752;49.594;8.734;2023-12-29T01:17:34;9.82;;;4.95;;
83761;SDS011;73752;49.594;8.734;2023-12-29T01:20:00;6.97;;;4.95;;
83761;SDS011;73752;49.594;8.734;2023-12-29T01:22:29;8.98;;;5.63;;
83761;SDS011;73752;49.594;8.734;2023-12-29T01:25:02;11.55;;;6.22;;
83761;SDS011;73752;49.594;8.734;2023-12-29T01:27:28;11.63;;;5.45;;
83761;SDS011;73752;49.594;8.734;2023-12-29T01:29:55;14.73;;;6.53;;
83761;SDS011;73752;49.594;8.734;2023-12-29T01:32:22;10.68;;;5.45;;
83761;SDS011;73752;49.594;8.734;2023-12-29T01:34:48;10.05;;;5.65;;
83761;SDS011;73752;49.594;8.734;2023-12-29T01:37:15;11.32;;;6.35;;
83761;SDS011;73752;49.594;8.734;2023-12-29T01:39:41;12.45;;;6.22;;
83761;SDS011;73752;49.594;8.734;2023-12-29T01:42:08;8.30;;;5.95;;
83761;SDS011;73752;49.594;8.734;2023-12-29T01:44:36;11.98;;;7.43;;
83761;SDS011;73752;49.594;8.734;2023-12-29T01:47:04;8.60;;;6.10;;
83761;SDS011;73752;49.594;8.734;2023-12-29T01:49:36;10.02;;;6.80;;
83761;SDS011;73752;49.594;8.734;2023-12-29T01:52:04;10.63;;;5.85;;
83761;SDS011;73752;49.594;8.734;2023-12-29T01:54:32;8.57;;;6.28;;
83761;SDS011;73752;49.594;8.734;2023-12-29T01:57:02;9.75;;;6.30;;
83761;SDS011;73752;49.594;8.734;2023-12-29T01:59:29;9.73;;;5.65;;
83761;SDS011;73752;49.594;8.734;2023-12-29T02:01:56;9.45;;;5.53;;
83761;SDS011;73752;49.594;8.734;2023-12-29T02:04:24;6.55;;;5.35;;
83761;SDS011;73752;49.594;8.734;2023-12-29T02:06:51;9.10;;;5.72;;
83761;SDS011;73752;49.594;8.734;2023-12-29T02:09:18;6.70;;;4.80;;
83761;SDS011;73752;49.594;8.734;2023-12-29T02:11:45;7.43;;;5.15;;
83761;SDS011;73752;49.594;8.734;2023-12-29T02:14:13;8.13;;;5.07;;
83761;SDS011;73752;49.594;8.734;2023-12-29T02:19:39;9.13;;;4.70;;
83761;SDS011;73752;49.594;8.734;2023-12-29T02:22:11;13.57;;;4.65;;
83761;SDS011;73752;49.594;8.734;2023-12-29T02:24:38;7.20;;;4.78;;
83761;SDS011;73752;49.594;8.734;2023-12-29T02:30:13;8.18;;;5.20;;
83761;SDS011;73752;49.594;8.734;2023-12-29T02:32:59;11.52;;;5.03;;
83761;SDS011;73752;49.594;8.734;2023-12-29T02:35:32;9.15;;;4.30;;
83761;SDS011;73752;49.594;8.734;2023-12-29T02:38:01;5.95;;;4.30;;
83761;SDS011;73752;49.594;8.734;2023-12-29T02:40:29;7.63;;;4.03;;
83761;SDS011;73752;49.594;8.734;2023-12-29T02:42:56;7.38;;;4.63;;
83761;SDS011;73752;49.594;8.734;2023-12-29T02:45:23;8.93;;;4.72;;
83761;SDS011;73752;49.594;8.734;2023-12-29T02:47:50;8.73;;;5.32;;
83761;SDS011;73752;49.594;8.734;2023-12-29T02:50:16;7.53;;;5.10;;
83761;SDS011;73752;49.594;8.734;2023-12-29T02:52:43;10.70;;;4.95;;
83761;SDS011;73752;49.594;8.734;2023-12-29T02:55:10;6.90;;;4.80;;
83761;SDS011;73752;49.594;8.734;2023-12-29T02:57:37;6.82;;;3.80;;
83761;SDS011;73752;49.594;8.734;2023-12-29T03:00:04;8.07;;;4.53;;
83761;SDS011;73752;49.594;8.734;2023-12-29T03:02:32;9.98;;;4.57;;
83761;SDS011;73752;49.594;8.734;2023-12-29T03:04:59;9.75;;;4.88;;
83761;SDS011;73752;49.594;8.734;2023-12-29T03:07:25;7.25;;;4.22;;
83761;SDS011;73752;49.594;8.734;2023-12-29T03:09:52;6.53;;;4.47;;
83761;SDS011;73752;49.594;8.734;2023-12-29T03:12:19;6.82;;;4.30;;
83761;SDS011;73752;49.594;8.734;2023-12-29T03:14:45;8.55;;;4.75;;
83761;SDS011;73752;49.594;8.734;2023-12-29T03:17:15;6.80;;;4.75;;
83761;SDS011;73752;49.594;8.734;2023-12-29T03:19:41;7.47;;;4.30;;
83761;SDS011;73752;49.594;8.734;2023-12-29T03:22:08;7.22;;;4.75;;
83761;SDS011;73752;49.594;8.734;2023-12-29T03:24:39;6.72;;;4.05;;
83761;SDS011;73752;49.594;8.734;2023-12-29T03:27:07;9.73;;;4.13;;
83761;SDS011;73752;49.594;8.734;2023-12-29T03:29:34;5.53;;;3.53;;
83761;SDS011;73752;49.594;8.734;2023-12-29T03:32:01;6.97;;;4.35;;
83761;SDS011;73752;49.594;8.734;2023-12-29T03:34:28;11.00;;;3.90;;
83761;SDS011;73752;49.594;8.734;2023-12-29T03:36:54;7.20;;;3.58;;
83761;SDS011;73752;49.594;8.734;2023-12-29T03:39:21;6.85;;;3.55;;
83761;SDS011;73752;49.594;8.734;2023-12-29T03:41:48;4.47;;;3.33;;
83761;SDS011;73752;49.594;8.734;2023-12-29T03:44:15;7.78;;;3.40;;
83761;SDS011;73752;49.594;8.734;2023-12-29T03:46:43;5.97;;;3.55;;
83761;SDS011;73752;49.594;8.734;2023-12-29T03:49:10;4.43;;;3.10;;
83761;SDS011;73752;49.594;8.734;2023-12-29T03:51:37;4.90;;;3.05;;
83761;SDS011;73752;49.594;8.734;2023-12-29T03:54:03;3.88;;;2.53;;
83761;SDS011;73752;49.594;8.734;2023-12-29T03:56:30;6.10;;;2.92;;
83761;SDS011;73752;49.594;8.734;2023-12-29T03:58:57;4.28;;;2.58;;
83761;SDS011;73752;49.594;8.734;2023-12-29T04:01:24;6.13;;;2.58;;
83761;SDS011;73752;49.594;8.734;2023-12-29T04:03:51;4.65;;;2.90;;
83761;SDS011;73752;49.594;8.734;2023-12-29T04:06:17;6.60;;;3.20;;
83761;SDS011;73752;49.594;8.734;2023-12-29T04:08:44;5.72;;;3.03;;
83761;SDS011;73752;49.594;8.734;2023-12-29T04:11:10;4.35;;;2.70;;
83761;SDS011;73752;49.594;8.734;2023-12-29T04:13:37;5.55;;;2.70;;
83761;SDS011;73752;49.594;8.734;2023-12-29T04:16:07;8.85;;;3.30;;
83761;SDS011;73752;49.594;8.734;2023-12-29T04:18:33;6.07;;;2.90;;
83761;SDS011;73752;49.594;8.734;2023-12-29T04:21:00;7.10;;;3.08;;
83761;SDS011;73752;49.594;8.734;2023-12-29T04:23:26;5.30;;;3.17;;
83761;SDS011;73752;49.594;8.734;2023-12-29T04:25:53;4.05;;;2.90;;
83761;SDS011;73752;49.594;8.734;2023-12-29T04:28:20;6.15;;;3.40;;
83761;SDS011;73752;49.594;8.734;2023-12-29T04:30:47;6.78;;;3.10;;
83761;SDS011;73752;49.594;8.734;2023-12-29T04:33:13;6.50;;;3.38;;
83761;SDS011;73752;49.594;8.734;2023-12-29T04:35:40;6.47;;;3.65;;
83761;SDS011;73752;49.594;8.734;2023-12-29T04:38:06;8.30;;;4.32;;
83761;SDS011;73752;49.594;8.734;2023-12-29T04:40:33;5.53;;;3.78;;
83761;SDS011;73752;49.594;8.734;2023-12-29T04:42:59;5.90;;;3.42;;
83761;SDS011;73752;49.594;8.734;2023-12-29T04:45:26;5.72;;;3.13;;
83761;SDS011;73752;49.594;8.734;2023-12-29T04:47:52;5.88;;;3.40;;
83761;SDS011;73752;49.594;8.734;2023-12-29T04:50:19;8.63;;;4.18;;
83761;SDS011;73752;49.594;8.734;2023-12-29T04:52:46;9.77;;;3.80;;
83761;SDS011;73752;49.594;8.734;2023-12-29T04:55:12;6.78;;;3.97;;
83761;SDS011;73752;49.594;8.734;2023-12-29T04:57:39;5.90;;;3.42;;
83761;SDS011;73752;49.594;8.734;2023-12-29T05:00:06;6.80;;;3.85;;
83761;SDS011;73752;49.594;8.734;2023-12-29T05:02:39;5.80;;;3.85;;
83761;SDS011;73752;49.594;8.734;2023-12-29T05:05:06;4.90;;;3.50;;
83761;SDS011;73752;49.594;8.734;2023-12-29T05:07:33;6.60;;;3.60;;
83761;SDS011;73752;49.594;8.734;2023-12-29T05:10:00;6.28;;;3.00;;
83761;SDS011;73752;49.594;8.734;2023-12-29T05:12:29;4.40;;;2.97;;
83761;SDS011;73752;49.594;8.734;2023-12-29T05:14:56;10.25;;;3.05;;
83761;SDS011;73752;49.594;8.734;2023-12-29T05:17:25;8.63;;;3.42;;
83761;SDS011;73752;49.594;8.734;2023-12-29T05:19:51;7.40;;;3.42;;
83761;SDS011;73752;49.594;8.734;2023-12-29T05:22:18;4.80;;;3.22;;
83761;SDS011;73752;49.594;8.734;2023-12-29T05:24:45;7.82;;;3.45;;
83761;SDS011;73752;49.594;8.734;2023-12-29T05:27:11;7.40;;;3.55;;
83761;SDS011;73752;49.594;8.734;2023-12-29T05:29:38;5.25;;;3.80;;
83761;SDS011;73752;49.594;8.734;2023-12-29T05:32:05;7.07;;;4.20;;
83761;SDS011;73752;49.594;8.734;2023-12-29T05:34:33;7.38;;;3.90;;
83761;SDS011;73752;49.594;8.734;2023-12-29T05:37:03;8.18;;;4.10;;
83761;SDS011;73752;49.594;8.734;2023-12-29T05:39:30;5.47;;;4.03;;
83761;SDS011;73752;49.594;8.734;2023-12-29T05:41:57;5.93;;;4.28;;
83761;SDS011;73752;49.594;8.734;2023-12-29T05:44:23;7.43;;;4.47;;
83761;SDS011;73752;49.594;8.734;2023-12-29T05:46:50;9.10;;;4.68;;
83761;SDS011;73752;49.594;8.734;2023-12-29T05:49:17;7.50;;;4.55;;
83761;SDS011;73752;49.594;8.734;2023-12-29T05:51:44;8.88;;;4.57;;
83761;SDS011;73752;49.594;8.734;2023-12-29T05:54:11;7.53;;;4.97;;
83761;SDS011;73752;49.594;8.734;2023-12-29T05:56:38;5.13;;;4.15;;
83761;SDS011;73752;49.594;8.734;2023-12-29T05:59:08;7.80;;;4.47;;
83761;SDS011;73752;49.594;8.734;2023-12-29T06:01:34;6.45;;;4.22;;
83761;SDS011;73752;49.594;8.734;2023-12-29T06:04:01;8.13;;;4.50;;
83761;SDS011;73752;49.594;8.734;2023-12-29T06:06:28;7.95;;;4.43;;
83761;SDS011;73752;49.594;8.734;2023-12-29T06:08:55;5.82;;;3.95;;
83761;SDS011;73752;49.594;8.734;2023-12-29T06:11:22;5.22;;;4.35;;
83761;SDS011;73752;49.594;8.734;2023-12-29T06:13:49;9.70;;;3.78;;
83761;SDS011;73752;49.594;8.734;2023-12-29T06:16:19;5.72;;;3.70;;
83761;SDS011;73752;49.594;8.734;2023-12-29T06:18:47;6.28;;;3.47;;
83761;SDS011;73752;49.594;8.734;2023-12-29T06:21:16;3.95;;;3.55;;
83761;SDS011;73752;49.594;8.734;2023-12-29T06:23:44;4.20;;;3.35;;
83761;SDS011;73752;49.594;8.734;2023-12-29T06:26:15;5.50;;;3.25;;
83761;SDS011;73752;49.594;8.734;2023-12-29T06:28:42;4.32;;;2.90;;
83761;SDS011;73752;49.594;8.734;2023-12-29T06:31:09;4.72;;;2.88;;
83761;SDS011;73752;49.594;8.734;2023-12-29T06:33:35;5.85;;;3.30;;
83761;SDS011;73752;49.594;8.734;2023-12-29T06:36:02;4.35;;;3.05;;
83761;SDS011;73752;49.594;8.734;2023-12-29T06:38:29;7.05;;;3.45;;
83761;SDS011;73752;49.594;8.734;2023-12-29T06:40:57;4.85;;;2.83;;
83761;SDS011;73752;49.594;8.734;2023-12-29T06:43:23;3.78;;;2.75;;
83761;SDS011;73752;49.594;8.734;2023-12-29T06:45:50;4.15;;;2.70;;
83761;SDS011;73752;49.594;8.734;2023-12-29T06:48:16;3.47;;;2.80;;
83761;SDS011;73752;49.594;8.734;2023-12-29T06:50:45;5.15;;;3.15;;
83761;SDS011;73752;49.594;8.734;2023-12-29T06:53:12;3.00;;;2.60;;
83761;SDS011;73752;49.594;8.734;2023-12-29T06:55:38;4.50;;;2.72;;
83761;SDS011;73752;49.594;8.734;2023-12-29T06:58:05;3.05;;;2.50;;
83761;SDS011;73752;49.594;8.734;2023-12-29T07:00:31;3.13;;;2.42;;
83761;SDS011;73752;49.594;8.734;2023-12-29T07:02:59;6.45;;;2.75;;
83761;SDS011;73752;49.594;8.734;2023-12-29T07:05:25;3.95;;;2.50;;
83761;SDS011;73752;49.594;8.734;2023-12-29T07:07:51;4.82;;;2.50;;
83761;SDS011;73752;49.594;8.734;2023-12-29T07:10:16;3.40;;;2.50;;
83761;SDS011;73752;49.594;8.734;2023-12-29T07:12:42;4.05;;;2.60;;
83761;SDS011;73752;49.594;8.734;2023-12-29T07:15:07;4.03;;;2.40;;
83761;SDS011;73752;49.594;8.734;2023-12-29T07:17:33;3.45;;;2.45;;
83761;SDS011;73752;49.594;8.734;2023-12-29T07:19:58;3.78;;;2.60;;
83761;SDS011;73752;49.594;8.734;2023-12-29T07:22:25;3.17;;;2.53;;
83761;SDS011;73752;49.594;8.734;2023-12-29T07:24:50;3.67;;;2.58;;
83761;SDS011;73752;49.594;8.734;2023-12-29T07:27:16;3.95;;;2.42;;
83761;SDS011;73752;49.594;8.734;2023-12-29T07:29:41;6.82;;;2.60;;
83761;SDS011;73752;49.594;8.734;2023-12-29T07:32:06;4.55;;;2.60;;
83761;SDS011;73752;49.594;8.734;2023-12-29T07:34:32;4.72;;;2.80;;
83761;SDS011;73752;49.594;8.734;2023-12-29T07:36:57;5.75;;;2.70;;
83761;SDS011;73752;49.594;8.734;2023-12-29T07:39:25;4.65;;;2.70;;
83761;SDS011;73752;49.594;8.734;2023-12-29T07:41:51;4.28;;;3.20;;
83761;SDS011;73752;49.594;8.734;2023-12-29T07:44:17;5.15;;;2.58;;
83761;SDS011;73752;49.594;8.734;2023-12-29T07:46:43;4.18;;;2.65;;
83761;SDS011;73752;49.594;8.734;2023-12-29T07:49:12;4.32;;;2.60;;
83761;SDS011;73752;49.594;8.734;2023-12-29T07:51:41;3.15;;;2.65;;
83761;SDS011;73752;49.594;8.734;2023-12-29T07:54:07;6.28;;;2.65;;
83761;SDS011;73752;49.594;8.734;2023-12-29T07:56:33;6.00;;;3.67;;
83761;SDS011;73752;49.594;8.734;2023-12-29T07:58:59;3.45;;;2.58;;
83761;SDS011;73752;49.594;8.734;2023-12-29T08:01:24;4.78;;;2.58;;
83761;SDS011;73752;49.594;8.734;2023-12-29T08:03:50;5.07;;;2.60;;
83761;SDS011;73752;49.594;8.734;2023-12-29T08:06:16;4.13;;;2.60;;
83761;SDS011;73752;49.594;8.734;2023-12-29T08:08:41;3.53;;;2.70;;
83761;SDS011;73752;49.594;8.734;2023-12-29T08:11:16;4.15;;;2.83;;
83761;SDS011;73752;49.594;8.734;2023-12-29T08:13:43;5.80;;;2.60;;
83761;SDS011;73752;49.594;8.734;2023-12-29T08:16:09;4.30;;;2.70;;
83761;SDS011;73752;49.594;8.734;2023-12-29T08:18:35;7.88;;;2.45;;
83761;SDS011;73752;49.594;8.734;2023-12-29T08:21:01;3.47;;;2.35;;
83761;SDS011;73752;49.594;8.734;2023-12-29T08:23:26;5.60;;;2.60;;
83761;SDS011;73752;49.594;8.734;2023-12-29T08:25:52;4.60;;;2.53;;
83761;SDS011;73752;49.594;8.734;2023-12-29T08:28:17;4.05;;;2.65;;
83761;SDS011;73752;49.594;8.734;2023-12-29T08:30:43;5.47;;;2.58;;
83761;SDS011;73752;49.594;8.734;2023-12-29T08:33:11;4.05;;;2.65;;
83761;SDS011;73752;49.594;8.734;2023-12-29T08:35:39;2.83;;;2.30;;
83761;SDS011;73752;49.594;8.734;2023-12-29T08:38:05;4.72;;;2.67;;
83761;SDS011;73752;49.594;8.734;2023-12-29T08:40:31;4.93;;;2.38;;
83761;SDS011;73752;49.594;8.734;2023-12-29T08:42:56;3.70;;;2.40;;
83761;SDS011;73752;49.594;8.734;2023-12-29T08:45:22;2.97;;;2.33;;
83761;SDS011;73752;49.594;8.734;2023-12-29T08:47:47;3.63;;;2.35;;
83761;SDS011;73752;49.594;8.734;2023-12-29T08:50:16;4.72;;;2.30;;
83761;SDS011;73752;49.594;8.734;2023-12-29T08:52:42;5.32;;;2.30;;
83761;SDS011;73752;49.594;8.734;2023-12-29T08:55:07;3.60;;;1.92;;
83761;SDS011;73752;49.594;8.734;2023-12-29T08:57:33;5.22;;;2.20;;
83761;SDS011;73752;49.594;8.734;2023-12-29T08:59:59;4.35;;;2.38;;
83761;SDS011;73752;49.594;8.734;2023-12-29T09:02:24;5.03;;;2.45;;
83761;SDS011;73752;49.594;8.734;2023-12-29T09:04:49;6.72;;;2.10;;
83761;SDS011;73752;49.594;8.734;2023-12-29T09:07:15;4.70;;;2.17;;
83761;SDS011;73752;49.594;8.734;2023-12-29T09:09:41;2.95;;;1.92;;
83761;SDS011;73752;49.594;8.734;2023-12-29T09:12:09;5.63;;;2.53;;
83761;SDS011;73752;49.594;8.734;2023-12-29T09:14:34;4.18;;;2.20;;
83761;SDS011;73752;49.594;8.734;2023-12-29T09:17:00;3.92;;;2.10;;
83761;SDS011;73752;49.594;8.734;2023-12-29T09:19:25;3.70;;;2.10;;
83761;SDS011;73752;49.594;8.734;2023-12-29T09:21:51;6.03;;;1.80;;
83761;SDS011;73752;49.594;8.734;2023-12-29T09:24:16;4.28;;;2.08;;
83761;SDS011;73752;49.594;8.734;2023-12-29T09:26:42;2.72;;;1.80;;
83761;SDS011;73752;49.594;8.734;2023-12-29T09:29:07;2.95;;;1.95;;
83761;SDS011;73752;49.594;8.734;2023-12-29T09:31:32;5.85;;;1.90;;
83761;SDS011;73752;49.594;8.734;2023-12-29T09:33:58;2.17;;;1.50;;
83761;SDS011;73752;49.594;8.734;2023-12-29T09:36:23;2.58;;;1.45;;
83761;SDS011;73752;49.594;8.734;2023-12-29T09:38:49;3.17;;;1.85;;
83761;SDS011;73752;49.594;8.734;2023-12-29T09:41:15;8.18;;;1.70;;
83761;SDS011;73752;49.594;8.734;2023-12-29T09:43:41;4.88;;;1.92;;
83761;SDS011;73752;49.594;8.734;2023-12-29T09:46:09;3.92;;;1.98;;
83761;SDS011;73752;49.594;8.734;2023-12-29T09:48:36;2.63;;;1.50;;
83761;SDS011;73752;49.594;8.734;2023-12-29T09:51:02;4.35;;;1.67;;
83761;SDS011;73752;49.594;8.734;2023-12-29T09:53:30;3.33;;;1.70;;
83761;SDS011;73752;49.594;8.734;2023-12-29T09:55:56;4.18;;;1.88;;
83761;SDS011;73752;49.594;8.734;2023-12-29T09:58:24;5.55;;;2.97;;
83761;SDS011;73752;49.594;8.734;2023-12-29T10:00:50;4.70;;;1.90;;
83761;SDS011;73752;49.594;8.734;2023-12-29T10:03:16;1.60;;;1.50;;
83761;SDS011;73752;49.594;8.734;2023-12-29T10:05:42;4.75;;;1.58;;
83761;SDS011;73752;49.594;8.734;2023-12-29T10:08:13;4.47;;;3.17;;
83761;SDS011;73752;49.594;8.734;2023-12-29T10:10:39;2.95;;;1.40;;
83761;SDS011;73752;49.594;8.734;2023-12-29T10:13:07;2.58;;;1.48;;
83761;SDS011;73752;49.594;8.734;2023-12-29T10:15:37;3.58;;;1.60;;
83761;SDS011;73752;49.594;8.734;2023-12-29T10:18:14;4.93;;;1.70;;
83761;SDS011;73752;49.594;8.734;2023-12-29T10:20:50;3.97;;;1.90;;
83761;SDS011;73752;49.594;8.734;2023-12-29T10:23:40;2.45;;;1.63;;
83761;SDS011;73752;49.594;8.734;2023-12-29T10:26:10;5.68;;;2.13;;
83761;SDS011;73752;49.594;8.734;2023-12-29T10:28:36;4.25;;;1.50;;
83761;SDS011;73752;49.594;8.734;2023-12-29T10:31:01;7.90;;;1.98;;
83761;SDS011;73752;49.594;8.734;2023-12-29T10:33:27;5.53;;;1.95;;
83761;SDS011;73752;49.594;8.734;2023-12-29T10:35:58;4.03;;;1.88;;
83761;SDS011;73752;49.594;8.734;2023-12-29T10:38:28;3.65;;;1.92;;
83761;SDS011;73752;49.594;8.734;2023-12-29T10:40:54;4.25;;;1.73;;
83761;SDS011;73752;49.594;8.734;2023-12-29T10:43:23;6.30;;;2.22;;
83761;SDS011;73752;49.594;8.734;2023-12-29T10:45:49;4.95;;;1.80;;
83761;SDS011;73752;49.594;8.734;2023-12-29T10:48:23;2.28;;;1.70;;
83761;SDS011;73752;49.594;8.734;2023-12-29T10:50:49;3.35;;;1.80;;
83761;SDS011;73752;49.594;8.734;2023-12-29T10:53:14;2.45;;;1.70;;
83761;SDS011;73752;49.594;8.734;2023-12-29T10:55:44;3.13;;;1.77;;
83761;SDS011;73752;49.594;8.734;2023-12-29T10:58:09;4.07;;;1.80;;
83761;SDS011;73752;49.594;8.734;2023-12-29T11:00:35;5.53;;;2.22;;
83761;SDS011;73752;49.594;8.734;2023-12-29T11:03:00;7.00;;;2.15;;
83761;SDS011;73752;49.594;8.734;2023-12-29T11:05:26;2.88;;;1.80;;
83761;SDS011;73752;49.594;8.734;2023-12-29T11:07:52;4.20;;;1.90;;
83761;SDS011;73752;49.594;8.734;2023-12-29T11:10:19;3.58;;;1.95;;
83761;SDS011;73752;49.594;8.734;2023-12-29T11:12:46;3.50;;;1.75;;
83761;SDS011;73752;49.594;8.734;2023-12-29T11:15:13;5.13;;;2.05;;
83761;SDS011;73752;49.594;8.734;2023-12-29T11:17:39;3.72;;;1.48;;
83761;SDS011;73752;49.594;8.734;2023-12-29T11:20:14;1.45;;;1.25;;
83761;SDS011;73752;49.594;8.734;2023-12-29T11:22:41;2.80;;;1.48;;
83761;SDS011;73752;49.594;8.734;2023-12-29T11:25:08;2.30;;;1.77;;
83761;SDS011;73752;49.594;8.734;2023-12-29T11:27:33;3.25;;;1.70;;
83761;SDS011;73752;49.594;8.734;2023-12-29T11:30:00;3.25;;;1.60;;
83761;SDS011;73752;49.594;8.734;2023-12-29T11:32:35;5.45;;;1.67;;
83761;SDS011;73752;49.594;8.734;2023-12-29T11:35:12;2.28;;;1.55;;
83761;SDS011;73752;49.594;8.734;2023-12-29T11:40:18;3.88;;;1.50;;
83761;SDS011;73752;49.594;8.734;2023-12-29T11:42:49;7.20;;;2.33;;
83761;SDS011;73752;49.594;8.734;2023-12-29T11:47:51;3.90;;;1.67;;
83761;SDS011;73752;49.594;8.734;2023-12-29T11:50:39;6.13;;;1.60;;
83761;SDS011;73752;49.594;8.734;2023-12-29T11:53:05;4.45;;;1.60;;
83761;SDS011;73752;49.594;8.734;2023-12-29T11:58:01;3.78;;;1.73;;
83761;SDS011;73752;49.594;8.734;2023-12-29T12:00:45;2.35;;;1.30;;
83761;SDS011;73752;49.594;8.734;2023-12-29T12:03:36;6.68;;;1.50;;
83761;SDS011;73752;49.594;8.734;2023-12-29T12:06:01;3.85;;;1.52;;
83761;SDS011;73752;49.594;8.734;2023-12-29T12:10:54;2.63;;;1.30;;
83761;SDS011;73752;49.594;8.734;2023-12-29T12:16:09;2.40;;;1.23;;
83761;SDS011;73752;49.594;8.734;2023-12-29T12:18:34;3.78;;;1.70;;
83761;SDS011;73752;49.594;8.734;2023-12-29T12:21:00;4.03;;;1.80;;
83761;SDS011;73752;49.594;8.734;2023-12-29T12:23:27;1.77;;;1.30;;
83761;SDS011;73752;49.594;8.734;2023-12-29T12:25:58;4.35;;;1.52;;
83761;SDS011;73752;49.594;8.734;2023-12-29T12:28:26;5.95;;;1.35;;
83761;SDS011;73752;49.594;8.734;2023-12-29T12:30:51;1.70;;;1.10;;
83761;SDS011;73752;49.594;8.734;2023-12-29T12:33:18;3.13;;;1.42;;
83761;SDS011;73752;49.594;8.734;2023-12-29T12:35:44;2.25;;;1.20;;
83761;SDS011;73752;49.594;8.734;2023-12-29T12:38:15;2.92;;;1.25;;
83761;SDS011;73752;49.594;8.734;2023-12-29T12:40:49;3.72;;;1.20;;
83761;SDS011;73752;49.594;8.734;2023-12-29T12:43:15;1.40;;;0.90;;
83761;SDS011;73752;49.594;8.734;2023-12-29T12:45:42;1.98;;;1.00;;
83761;SDS011;73752;49.594;8.734;2023-12-29T12:48:13;2.17;;;0.90;;
83761;SDS011;73752;49.594;8.734;2023-12-29T12:50:45;3.00;;;1.10;;
83761;SDS011;73752;49.594;8.734;2023-12-29T12:53:12;2.85;;;1.30;;
83761;SDS011;73752;49.594;8.734;2023-12-29T12:55:45;3.45;;;1.85;;
83761;SDS011;73752;49.594;8.734;2023-12-29T12:58:16;1.30;;;0.90;;
83761;SDS011;73752;49.594;8.734;2023-12-29T13:00:43;4.15;;;1.10;;
83761;SDS011;73752;49.594;8.734;2023-12-29T13:03:10;1.52;;;0.85;;
83761;SDS011;73752;49.594;8.734;2023-12-29T13:05:36;2.08;;;1.20;;
83761;SDS011;73752;49.594;8.734;2023-12-29T13:08:02;3.88;;;1.27;;
83761;SDS011;73752;49.594;8.734;2023-12-29T13:10:29;3.95;;;1.00;;
83761;SDS011;73752;49.594;8.734;2023-12-29T13:12:55;2.85;;;1.00;;
83761;SDS011;73752;49.594;8.734;2023-12-29T13:15:22;2.53;;;1.58;;
83761;SDS011;73752;49.594;8.734;2023-12-29T13:17:53;3.53;;;1.88;;
83761;SDS011;73752;49.594;8.734;2023-12-29T13:20:19;3.15;;;1.00;;
83761;SDS011;73752;49.594;8.734;2023-12-29T13:22:48;5.38;;;1.17;;
83761;SDS011;73752;49.594;8.734;2023-12-29T13:25:19;1.63;;;1.10;;
83761;SDS011;73752;49.594;8.734;2023-12-29T13:27:46;2.38;;;1.30;;
83761;SDS011;73752;49.594;8.734;2023-12-29T13:30:12;1.70;;;1.30;;
83761;SDS011;73752;49.594;8.734;2023-12-29T13:32:39;4.63;;;1.50;;
83761;SDS011;73752;49.594;8.734;2023-12-29T13:35:08;5.75;;;2.67;;
83761;SDS011;73752;49.594;8.734;2023-12-29T13:37:51;3.33;;;1.90;;
83761;SDS011;73752;49.594;8.734;2023-12-29T13:40:27;2.47;;;1.73;;
83761;SDS011;73752;49.594;8.734;2023-12-29T13:43:09;3.35;;;1.95;;
83761;SDS011;73752;49.594;8.734;2023-12-29T13:45:36;2.72;;;1.70;;
83761;SDS011;73752;49.594;8.734;2023-12-29T13:48:05;4.68;;;1.90;;
83761;SDS011;73752;49.594;8.734;2023-12-29T13:50:32;2.60;;;1.67;;
83761;SDS011;73752;49.594;8.734;2023-12-29T13:52:59;5.30;;;1.92;;
83761;SDS011;73752;49.594;8.734;2023-12-29T13:55:25;2.83;;;1.75;;
83761;SDS011;73752;49.594;8.734;2023-12-29T13:57:50;2.92;;;1.60;;
83761;SDS011;73752;49.594;8.734;2023-12-29T14:00:17;2.83;;;1.50;;
83761;SDS011;73752;49.594;8.734;2023-12-29T14:02:44;2.50;;;1.42;;
83761;SDS011;73752;49.594;8.734;2023-12-29T14:05:19;4.40;;;1.48;;
83761;SDS011;73752;49.594;8.734;2023-12-29T14:07:52;2.88;;;1.52;;
83761;SDS011;73752;49.594;8.734;2023-12-29T14:10:23;3.90;;;2.10;;
83761;SDS011;73752;49.594;8.734;2023-12-29T14:12:53;2.50;;;1.35;;
83761;SDS011;73752;49.594;8.734;2023-12-29T14:15:18;2.45;;;1.52;;
83761;SDS011;73752;49.594;8.734;2023-12-29T14:17:44;3.67;;;1.20;;
83761;SDS011;73752;49.594;8.734;2023-12-29T14:23:03;2.10;;;1.35;;
83761;SDS011;73752;49.594;8.734;2023-12-29T14:25:30;3.35;;;1.80;;
83761;SDS011;73752;49.594;8.734;2023-12-29T14:28:01;1.88;;;1.27;;
83761;SDS011;73752;49.594;8.734;2023-12-29T14:30:27;3.83;;;1.48;;
83761;SDS011;73752;49.594;8.734;2023-12-29T14:32:56;4.38;;;1.50;;
83761;SDS011;73752;49.594;8.734;2023-12-29T14:35:21;3.25;;;1.40;;
83761;SDS011;73752;49.594;8.734;2023-12-29T14:37:47;5.00;;;1.60;;
83761;SDS011;73752;49.594;8.734;2023-12-29T14:40:12;2.40;;;1.40;;
83761;SDS011;73752;49.594;8.734;2023-12-29T14:42:40;2.40;;;1.30;;
83761;SDS011;73752;49.594;8.734;2023-12-29T14:45:06;3.65;;;1.52;;
83761;SDS011;73752;49.594;8.734;2023-12-29T14:47:32;1.98;;;1.40;;
83761;SDS011;73752;49.594;8.734;2023-12-29T14:49:59;4.53;;;1.45;;
83761;SDS011;73752;49.594;8.734;2023-12-29T14:52:24;3.10;;;1.38;;
83761;SDS011;73752;49.594;8.734;2023-12-29T14:54:51;3.13;;;1.60;;
83761;SDS011;73752;49.594;8.734;2023-12-29T14:57:16;3.63;;;1.90;;
83761;SDS011;73752;49.594;8.734;2023-12-29T14:59:42;7.57;;;3.50;;
83761;SDS011;73752;49.594;8.734;2023-12-29T15:02:07;3.70;;;2.00;;
83761;SDS011;73752;49.594;8.734;2023-12-29T15:04:34;4.63;;;2.67;;
83761;SDS011;73752;49.594;8.734;2023-12-29T15:07:00;3.47;;;2.15;;
83761;SDS011;73752;49.594;8.734;2023-12-29T15:09:26;3.17;;;1.92;;
83761;SDS011;73752;49.594;8.734;2023-12-29T15:11:52;2.70;;;1.58;;